createdAt,value
2019-05-21T00:00:39.261Z,42.40
2019-05-21T00:03:11.678Z,37.27
2019-05-21T00:05:45.400Z,36.93
2019-05-21T00:08:17.751Z,30.90
2019-05-21T00:10:54.867Z,27.10
2019-05-21T00:13:28.690Z,25.33
2019-05-21T00:16:04.216Z,23.23
2019-05-21T00:18:39.601Z,22.40
2019-05-21T00:21:11.924Z,21.53
2019-05-21T00:23:44.834Z,21.63
2019-05-21T00:26:17.065Z,18.97
2019-05-21T00:29:11.897Z,18.75
2019-05-21T00:32:06.391Z,17.43
2019-05-21T00:35:01.294Z,13.97
2019-05-21T00:37:55.893Z,15.68
2019-05-21T00:40:50.603Z,16.97
2019-05-21T00:43:51.352Z,16.97
2019-05-21T00:46:23.695Z,19.07
2019-05-21T00:48:56.008Z,19.40
2019-05-21T00:51:28.275Z,23.52
2019-05-21T00:54:00.599Z,26.13
2019-05-21T00:56:32.878Z,32.57
2019-05-21T00:59:06.019Z,31.67
2019-05-21T01:01:38.996Z,32.93
2019-05-21T01:04:13.476Z,30.83
2019-05-21T01:06:45.778Z,27.70
2019-05-21T01:09:18.065Z,26.40
2019-05-21T01:11:51.141Z,26.03
2019-05-21T01:14:23.410Z,23.97
2019-05-21T01:16:55.847Z,22.70
2019-05-21T01:19:28.739Z,23.47
2019-05-21T01:22:01.056Z,23.87
2019-05-21T01:24:34.314Z,24.17
2019-05-21T01:27:06.619Z,25.90
2019-05-21T01:29:38.906Z,31.47
2019-05-21T01:32:11.169Z,31.83
2019-05-21T01:34:43.471Z,34.00
2019-05-21T01:37:15.747Z,33.90
2019-05-21T01:39:50.640Z,33.07
2019-05-21T01:42:23.171Z,34.30
2019-05-21T01:44:55.405Z,32.50
2019-05-21T01:47:27.712Z,31.10
2019-05-21T01:50:00.044Z,31.93
2019-05-21T01:52:32.355Z,31.50
2019-05-21T01:55:04.792Z,26.83
2019-05-21T01:57:37.683Z,24.30
2019-05-21T02:00:12.999Z,23.43
2019-05-21T02:02:45.937Z,29.73
2019-05-21T02:05:32.124Z,31.87
2019-05-21T02:08:05.674Z,30.57
2019-05-21T02:10:37.956Z,30.50
2019-05-21T02:13:10.227Z,29.87
2019-05-21T02:15:42.601Z,30.43
2019-05-21T02:18:14.920Z,30.07
2019-05-21T02:20:47.276Z,27.93
2019-05-21T02:23:19.625Z,26.43
2019-05-21T02:28:16.063Z,28.15
2019-05-21T02:30:48.330Z,25.80
2019-05-21T02:33:20.651Z,30.67
2019-05-21T02:35:54.809Z,29.57
2019-05-21T02:38:27.486Z,28.97
2019-05-21T02:40:59.760Z,24.97
2019-05-21T02:43:32.100Z,26.57
2019-05-21T02:46:05.624Z,24.87
2019-05-21T02:48:38.119Z,27.17
2019-05-21T02:51:10.609Z,24.63
2019-05-21T02:53:43.327Z,24.63
2019-05-21T02:56:15.888Z,29.25
2019-05-21T02:58:49.444Z,27.47
2019-05-21T03:01:34.405Z,27.83
2019-05-21T03:04:07.087Z,27.70
2019-05-21T03:06:39.712Z,27.53
2019-05-21T03:09:12.356Z,28.00
2019-05-21T03:11:44.871Z,28.00
2019-05-21T03:14:17.429Z,28.00
2019-05-21T03:16:50.256Z,26.37
2019-05-21T03:19:22.673Z,27.70
2019-05-21T03:21:54.924Z,24.77
2019-05-21T03:24:27.265Z,23.03
2019-05-21T03:26:59.579Z,23.13
2019-05-21T03:29:31.971Z,23.67
2019-05-21T03:32:04.242Z,31.48
2019-05-21T03:34:36.627Z,26.50
2019-05-21T03:37:08.859Z,26.93
2019-05-21T03:39:41.160Z,26.23
2019-05-21T03:42:14.070Z,25.23
2019-05-21T03:44:59.154Z,26.20
2019-05-21T03:47:31.791Z,24.77
2019-05-21T03:50:04.405Z,26.53
2019-05-21T03:52:36.745Z,28.67
2019-05-21T03:55:09.773Z,34.23
2019-05-21T03:57:42.249Z,33.67
2019-05-21T04:00:22.107Z,32.70
2019-05-21T04:02:54.379Z,33.73
2019-05-21T04:05:26.755Z,36.10
2019-05-21T04:07:59.075Z,36.97
2019-05-21T04:10:31.386Z,33.67
2019-05-21T04:13:06.070Z,34.50
2019-05-21T04:15:53.746Z,33.78
2019-05-21T04:18:36.226Z,35.30
2019-05-21T04:21:09.343Z,37.03
2019-05-21T04:23:41.880Z,39.70
2019-05-21T04:26:14.458Z,35.57
2019-05-21T04:28:47.067Z,39.20
2019-05-21T04:31:19.441Z,40.20
2019-05-21T04:33:51.932Z,40.07
2019-05-21T04:36:24.583Z,43.37
2019-05-21T04:38:57.224Z,41.80
2019-05-21T04:41:29.740Z,42.67
2019-05-21T04:44:02.319Z,51.27
2019-05-21T04:46:35.125Z,53.22
2019-05-21T04:49:07.733Z,50.93
2019-05-21T04:51:42.058Z,50.90
2019-05-21T04:54:14.724Z,50.27
2019-05-21T04:56:48.529Z,47.00
2019-05-21T04:59:21.706Z,52.42
2019-05-21T05:01:54.221Z,52.70
2019-05-21T05:04:27.513Z,45.00
2019-05-21T05:07:03.299Z,47.33
2019-05-21T05:09:35.918Z,44.97
2019-05-21T05:12:08.373Z,43.97
2019-05-21T05:14:41.037Z,38.17
2019-05-21T05:17:14.224Z,37.80
2019-05-21T05:19:47.525Z,39.90
2019-05-21T05:22:21.206Z,48.43
2019-05-21T05:24:53.502Z,44.63
2019-05-21T05:27:25.793Z,46.13
2019-05-21T05:29:58.654Z,47.47
2019-05-21T05:32:30.976Z,45.47
2019-05-21T05:35:03.497Z,39.87
2019-05-21T05:37:44.255Z,39.50
2019-05-21T05:40:18.936Z,41.77
2019-05-21T05:42:51.787Z,42.77
2019-05-21T05:45:25.036Z,42.57
2019-05-21T05:47:57.306Z,39.63
2019-05-21T05:50:38.744Z,37.33
2019-05-21T05:53:14.700Z,32.67
2019-05-21T05:55:47.009Z,30.83
2019-05-21T05:58:19.959Z,29.87
2019-05-21T06:00:53.028Z,29.30
2019-05-21T06:03:26.499Z,30.70
2019-05-21T06:05:59.857Z,30.27
2019-05-21T06:08:32.348Z,28.63
2019-05-21T06:11:06.633Z,29.37
2019-05-21T06:13:39.193Z,28.53
2019-05-21T06:16:11.824Z,28.60
2019-05-21T06:18:44.522Z,26.93
2019-05-21T06:21:17.000Z,25.20
2019-05-21T06:23:50.488Z,24.67
2019-05-21T06:26:23.142Z,23.73
2019-05-21T06:28:55.683Z,23.07
2019-05-21T06:31:29.868Z,21.43
2019-05-21T06:34:03.156Z,24.37
2019-05-21T06:36:36.344Z,23.33
2019-05-21T06:39:08.846Z,22.07
2019-05-21T06:41:43.020Z,26.37
2019-05-21T06:44:16.231Z,23.63
2019-05-21T06:46:49.685Z,27.00
2019-05-21T06:49:24.393Z,26.63
2019-05-21T06:51:57.548Z,27.47
2019-05-21T06:54:33.747Z,25.67
2019-05-21T06:57:07.899Z,25.83
2019-05-21T06:59:40.587Z,26.27
2019-05-21T07:02:14.028Z,27.52
2019-05-21T07:04:47.808Z,30.53
2019-05-21T07:07:20.193Z,25.83
2019-05-21T07:09:52.437Z,23.97
2019-05-21T07:12:25.638Z,24.07
2019-05-21T07:14:57.970Z,23.97
2019-05-21T07:17:30.501Z,23.07
2019-05-21T07:20:02.917Z,22.63
2019-05-21T07:22:36.050Z,23.17
2019-05-21T07:25:10.180Z,22.70
2019-05-21T07:27:44.282Z,20.37
2019-05-21T07:30:21.698Z,21.80
2019-05-21T07:32:54.440Z,19.77
2019-05-21T07:35:27.955Z,26.20
2019-05-21T07:38:01.469Z,21.23
2019-05-21T07:40:36.179Z,21.67
2019-05-21T07:43:12.790Z,22.87
2019-05-21T07:45:46.407Z,21.63
2019-05-21T07:48:21.076Z,21.30
2019-05-21T07:50:53.535Z,22.67
2019-05-21T07:53:25.928Z,23.63
2019-05-21T07:55:58.947Z,25.63
2019-05-21T07:58:31.343Z,37.17
2019-05-21T08:01:04.558Z,41.23
2019-05-21T08:03:37.615Z,42.90
2019-05-21T08:06:14.863Z,49.33
2019-05-21T08:08:47.590Z,50.70
2019-05-21T08:11:20.826Z,49.40
2019-05-21T08:13:53.752Z,47.77
2019-05-21T08:16:27.009Z,52.42
2019-05-21T08:19:00.472Z,47.97
2019-05-21T08:21:32.807Z,44.20
2019-05-21T08:24:05.897Z,42.37
2019-05-21T08:26:40.354Z,41.85
2019-05-21T08:29:12.743Z,39.60
2019-05-21T08:31:44.984Z,35.83
2019-05-21T08:34:18.845Z,44.60
2019-05-21T08:36:53.277Z,44.90
2019-05-21T08:39:29.193Z,49.53
2019-05-21T08:42:02.622Z,44.57
2019-05-21T08:44:35.643Z,42.27
2019-05-21T08:47:10.215Z,40.17
2019-05-21T08:49:44.313Z,37.67
2019-05-21T08:52:16.709Z,37.50
2019-05-21T08:54:50.563Z,34.83
2019-05-21T08:57:23.950Z,33.83
2019-05-21T08:59:59.927Z,32.22
2019-05-21T09:02:32.364Z,31.03
2019-05-21T09:05:06.517Z,28.93
2019-05-21T09:07:42.521Z,29.57
2019-05-21T09:10:19.954Z,29.73
2019-05-21T09:12:52.909Z,31.10
2019-05-21T09:15:26.547Z,29.83
2019-05-21T09:17:58.944Z,32.03
2019-05-21T09:20:33.112Z,31.93
2019-05-21T09:23:06.382Z,35.40
2019-05-21T09:25:38.758Z,35.53
2019-05-21T09:28:11.148Z,36.27
2019-05-21T09:30:44.360Z,40.58
2019-05-21T09:33:16.668Z,33.47
2019-05-21T09:35:49.807Z,33.20
2019-05-21T09:38:23.733Z,31.67
2019-05-21T09:40:57.600Z,28.83
2019-05-21T09:43:30.579Z,27.17
2019-05-21T09:46:05.056Z,26.60
2019-05-21T09:48:37.372Z,24.93
2019-05-21T09:51:09.686Z,23.23
2019-05-21T09:53:44.184Z,21.60
2019-05-21T09:56:22.108Z,21.27
2019-05-21T10:00:17.540Z,17.60
2019-05-21T10:02:52.605Z,19.03
2019-05-21T10:05:25.053Z,23.50
2019-05-21T10:07:58.744Z,21.57
2019-05-21T10:10:32.233Z,23.27
2019-05-21T10:13:05.585Z,22.90
2019-05-21T10:15:39.666Z,21.47
2019-05-21T10:18:14.993Z,27.50
2019-05-21T10:20:56.861Z,30.60
2019-05-21T10:23:32.740Z,28.50
2019-05-21T10:26:06.560Z,25.10
2019-05-21T10:28:40.358Z,27.17
2019-05-21T10:31:14.482Z,28.58
2019-05-21T10:33:47.569Z,25.30
2019-05-21T10:36:25.247Z,26.37
2019-05-21T10:38:59.687Z,30.90
2019-05-21T10:41:32.089Z,29.07
2019-05-21T10:44:06.246Z,26.60
2019-05-21T10:46:39.215Z,29.63
2019-05-21T10:49:12.964Z,27.67
2019-05-21T10:51:46.417Z,26.60
2019-05-21T10:54:19.868Z,26.42
2019-05-21T10:56:53.670Z,38.50
2019-05-21T10:59:26.645Z,41.50
2019-05-21T11:02:18.333Z,42.50
2019-05-21T11:05:22.672Z,50.58
2019-05-21T11:08:25.231Z,47.78
2019-05-21T11:10:58.087Z,45.07
2019-05-21T11:13:34.691Z,44.27
2019-05-21T11:16:13.675Z,48.47
2019-05-21T11:18:48.452Z,45.23
2019-05-21T11:21:22.312Z,44.23
2019-05-21T11:23:56.539Z,46.53
2019-05-21T11:26:32.321Z,45.30
2019-05-21T11:29:05.463Z,48.03
2019-05-21T11:31:55.691Z,56.33
2019-05-21T11:34:30.734Z,46.22
2019-05-21T11:37:04.013Z,42.63
2019-05-21T11:39:37.180Z,49.13
2019-05-21T11:42:09.688Z,47.27
2019-05-21T11:44:44.260Z,48.07
2019-05-21T11:47:16.679Z,45.00
2019-05-21T11:49:50.705Z,48.47
2019-05-21T11:52:25.384Z,47.57
2019-05-21T11:54:58.596Z,48.53
2019-05-21T11:57:31.960Z,49.90
2019-05-21T12:00:07.517Z,52.83
2019-05-21T12:02:40.561Z,50.03
2019-05-21T12:05:18.843Z,49.93
2019-05-21T12:08:00.481Z,50.87
2019-05-21T12:10:33.805Z,50.57
2019-05-21T12:13:07.084Z,51.63
2019-05-21T12:15:39.394Z,54.78
2019-05-21T12:18:13.665Z,52.10
2019-05-21T12:20:47.737Z,51.07
2019-05-21T12:23:22.339Z,45.67
2019-05-21T12:25:54.740Z,51.67
2019-05-21T12:28:28.131Z,48.40
2019-05-21T12:31:00.525Z,47.47
2019-05-21T12:33:35.371Z,49.23
2019-05-21T12:36:09.558Z,56.30
2019-05-21T12:38:42.969Z,56.13
2019-05-21T12:41:17.301Z,59.15
2019-05-21T12:43:51.829Z,52.83
2019-05-21T12:46:25.302Z,54.10
2019-05-21T12:48:59.825Z,51.07
2019-05-21T12:51:35.115Z,54.50
2019-05-21T12:54:07.506Z,51.97
2019-05-21T12:56:41.291Z,48.57
2019-05-21T12:59:13.826Z,48.53
2019-05-21T13:01:47.063Z,42.47
2019-05-21T13:04:19.531Z,46.13
2019-05-21T13:06:53.265Z,42.87
2019-05-21T13:09:32.814Z,39.65
2019-05-21T13:12:06.833Z,39.77
2019-05-21T13:14:40.193Z,38.37
2019-05-21T13:17:14.137Z,34.23
2019-05-21T13:19:48.979Z,34.80
2019-05-21T13:22:22.087Z,36.40
2019-05-21T13:24:59.186Z,34.00
2019-05-21T13:27:31.538Z,38.70
2019-05-21T13:30:06.083Z,44.70
2019-05-21T13:32:43.642Z,42.53
2019-05-21T13:35:17.332Z,42.87
2019-05-21T13:37:49.777Z,43.70
2019-05-21T13:40:25.519Z,39.88
2019-05-21T13:43:00.705Z,37.30
2019-05-21T13:45:33.710Z,38.43
2019-05-21T13:48:06.031Z,36.43
2019-05-21T13:50:39.104Z,32.83
2019-05-21T13:53:18.130Z,35.30
2019-05-21T13:55:51.841Z,35.97
2019-05-21T13:58:25.304Z,34.80
2019-05-21T14:01:00.489Z,33.63
2019-05-21T14:03:32.934Z,32.00
2019-05-21T14:06:06.738Z,33.47
2019-05-21T14:08:40.829Z,37.80
2019-05-21T14:11:13.078Z,37.17
2019-05-21T14:13:47.545Z,31.50
2019-05-21T14:16:20.907Z,32.03
2019-05-21T14:18:58.502Z,29.10
2019-05-21T14:21:31.788Z,35.53
2019-05-21T14:24:06.033Z,32.67
2019-05-21T14:26:38.427Z,33.73
2019-05-21T14:29:11.857Z,32.13
2019-05-21T14:31:46.812Z,33.40
2019-05-21T14:34:21.624Z,32.80
2019-05-21T14:36:54.387Z,30.90
2019-05-21T14:39:28.706Z,32.47
2019-05-21T14:42:04.479Z,34.43
2019-05-21T14:44:42.163Z,36.60
2019-05-21T14:47:19.082Z,35.40
2019-05-21T14:49:53.434Z,37.97
2019-05-21T14:52:27.106Z,37.90
2019-05-21T14:55:01.794Z,41.13
2019-05-21T14:57:36.522Z,40.30
2019-05-21T15:00:24.637Z,39.50
2019-05-21T15:02:57.541Z,39.77
2019-05-21T15:05:31.448Z,37.30
2019-05-21T15:08:06.572Z,32.20
2019-05-21T15:10:48.714Z,35.13
2019-05-21T15:13:23.605Z,34.03
2019-05-21T15:15:56.491Z,32.73
2019-05-21T15:18:35.222Z,38.63
2019-05-21T15:21:20.260Z,35.57
2019-05-21T15:23:53.090Z,31.87
2019-05-21T15:26:27.808Z,31.00
2019-05-21T15:29:04.221Z,30.40
2019-05-21T15:31:40.212Z,33.25
2019-05-21T15:34:27.661Z,28.87
2019-05-21T15:37:06.607Z,29.07
2019-05-21T15:39:44.200Z,28.80
2019-05-21T15:42:18.554Z,28.60
2019-05-21T15:44:52.937Z,29.27
2019-05-21T15:47:27.269Z,28.97
2019-05-21T15:50:02.399Z,30.00
2019-05-21T15:52:34.996Z,32.90
2019-05-21T15:55:10.495Z,29.67
2019-05-21T15:57:45.086Z,28.80
2019-05-21T16:00:20.190Z,31.52
2019-05-21T16:02:52.907Z,30.97
2019-05-21T16:05:27.622Z,30.83
2019-05-21T16:08:00.803Z,30.53
2019-05-21T16:10:34.765Z,28.17
2019-05-21T16:13:07.954Z,29.73
2019-05-21T16:15:40.968Z,28.90
2019-05-21T16:18:13.498Z,29.77
2019-05-21T16:20:46.736Z,28.07
2019-05-21T16:23:22.542Z,32.42
2019-05-21T16:25:58.814Z,28.17
2019-05-21T16:28:33.047Z,28.03
2019-05-21T16:33:27.813Z,27.77
2019-05-21T16:36:00.277Z,32.63
2019-05-21T16:38:34.615Z,30.73
2019-05-21T16:41:07.633Z,29.90
2019-05-21T16:43:43.719Z,29.17
2019-05-21T16:46:18.639Z,29.43
2019-05-21T16:48:55.071Z,32.37
2019-05-21T16:51:28.758Z,30.07
2019-05-21T16:54:02.079Z,32.67
2019-05-21T16:56:35.850Z,31.67
2019-05-21T16:59:10.482Z,30.50
2019-05-21T17:01:44.934Z,31.83
2019-05-21T17:04:20.324Z,31.07
2019-05-21T17:06:56.080Z,29.73
2019-05-21T17:09:30.657Z,32.20
2019-05-21T17:12:03.732Z,30.63
2019-05-21T17:14:37.742Z,28.90
2019-05-21T17:17:13.404Z,30.70
2019-05-21T17:19:55.499Z,29.50
2019-05-21T17:22:31.211Z,27.87
2019-05-21T17:25:13.419Z,31.33
2019-05-21T17:27:51.169Z,30.27
2019-05-21T17:30:27.100Z,31.27
2019-05-21T17:32:59.535Z,29.17
2019-05-21T17:35:32.027Z,27.03
2019-05-21T17:38:04.484Z,33.13
2019-05-21T17:40:39.716Z,29.83
2019-05-21T17:43:13.965Z,28.17
2019-05-21T17:45:47.703Z,30.77
2019-05-21T17:48:22.306Z,27.67
2019-05-21T17:50:55.545Z,26.77
2019-05-21T17:53:29.164Z,26.53
2019-05-21T17:56:22.560Z,30.97
2019-05-21T17:58:55.857Z,28.67
2019-05-21T18:01:33.391Z,28.97
2019-05-21T18:04:07.846Z,30.23
2019-05-21T18:06:41.560Z,34.83
2019-05-21T18:09:17.856Z,33.97
2019-05-21T18:11:53.900Z,30.33
2019-05-21T18:14:26.415Z,30.37
2019-05-21T18:17:00.347Z,30.33
2019-05-21T18:19:35.876Z,28.20
2019-05-21T18:22:12.090Z,29.67
2019-05-21T18:24:48.275Z,28.17
2019-05-21T18:31:37.785Z,28.08
2019-05-21T18:34:10.206Z,22.62
2019-05-21T18:39:37.977Z,25.70
2019-05-21T18:42:21.686Z,26.73
2019-05-21T18:47:30.527Z,26.20
2019-05-21T18:50:04.660Z,22.13
2019-05-21T18:52:56.574Z,29.02
2019-05-21T19:26:54.589Z,28.43
2019-05-21T19:29:30.799Z,30.48
2019-05-21T19:32:08.261Z,24.35
2019-05-21T19:41:55.248Z,24.77
